sensor_id;sensor_type;location;lat;lon;timestamp;P1;durP1;ratioP1;P2;durP2;ratioP2
37409;SDS011;23275;48.914;12.566;2023-01-26T00:00:58;27.02;;;13.38;;
37409;SDS011;23275;48.914;12.566;2023-01-26T00:03:24;22.23;;;11.98;;
37409;SDS011;23275;48.914;12.566;2023-01-26T00:05:51;25.35;;;12.50;;
37409;SDS011;23275;48.914;12.566;2023-01-26T00:08:16;24.83;;;12.13;;
37409;SDS011;23275;48.914;12.566;2023-01-26T00:10:42;24.75;;;13.32;;
37409;SDS011;23275;48.914;12.566;2023-01-26T00:13:15;23.23;;;12.10;;
37409;SDS011;23275;48.914;12.566;2023-01-26T00:15:43;21.83;;;12.65;;
37409;SDS011;23275;48.914;12.566;2023-01-26T00:18:08;22.52;;;12.40;;
37409;SDS011;23275;48.914;12.566;2023-01-26T00:20:34;22.23;;;11.63;;
37409;SDS011;23275;48.914;12.566;2023-01-26T00:23:00;21.27;;;11.80;;
37409;SDS011;23275;48.914;12.566;2023-01-26T00:25:25;22.80;;;11.73;;
37409;SDS011;23275;48.914;12.566;2023-01-26T00:27:51;23.55;;;12.40;;
37409;SDS011;23275;48.914;12.566;2023-01-26T00:30:16;21.58;;;11.77;;
37409;SDS011;23275;48.914;12.566;2023-01-26T00:32:42;25.10;;;13.07;;
37409;SDS011;23275;48.914;12.566;2023-01-26T00:35:08;20.98;;;11.85;;
37409;SDS011;23275;48.914;12.566;2023-01-26T00:37:33;23.65;;;12.40;;
37409;SDS011;23275;48.914;12.566;2023-01-26T00:39:59;25.95;;;12.10;;
37409;SDS011;23275;48.914;12.566;2023-01-26T00:42:25;25.27;;;12.23;;
37409;SDS011;23275;48.914;12.566;2023-01-26T00:44:50;24.63;;;13.18;;
37409;SDS011;23275;48.914;12.566;2023-01-26T00:47:16;23.88;;;12.55;;
37409;SDS011;23275;48.914;12.566;2023-01-26T00:49:43;24.40;;;12.77;;
37409;SDS011;23275;48.914;12.566;2023-01-26T00:52:09;25.83;;;14.00;;
37409;SDS011;23275;48.914;12.566;2023-01-26T00:54:36;25.35;;;12.35;;
37409;SDS011;23275;48.914;12.566;2023-01-26T00:57:02;24.70;;;12.40;;
37409;SDS011;23275;48.914;12.566;2023-01-26T00:59:28;23.65;;;13.02;;
37409;SDS011;23275;48.914;12.566;2023-01-26T01:01:56;25.08;;;12.60;;
37409;SDS011;23275;48.914;12.566;2023-01-26T01:04:22;23.95;;;12.77;;
37409;SDS011;23275;48.914;12.566;2023-01-26T01:06:48;24.67;;;13.40;;
37409;SDS011;23275;48.914;12.566;2023-01-26T01:09:14;23.67;;;11.93;;
37409;SDS011;23275;48.914;12.566;2023-01-26T01:11:39;26.60;;;12.45;;
37409;SDS011;23275;48.914;12.566;2023-01-26T01:14:06;25.88;;;12.85;;
37409;SDS011;23275;48.914;12.566;2023-01-26T01:16:32;26.27;;;13.07;;
37409;SDS011;23275;48.914;12.566;2023-01-26T01:18:57;23.27;;;13.10;;
37409;SDS011;23275;48.914;12.566;2023-01-26T01:21:23;25.45;;;12.73;;
37409;SDS011;23275;48.914;12.566;2023-01-26T01:23:49;24.92;;;12.07;;
37409;SDS011;23275;48.914;12.566;2023-01-26T01:26:15;23.02;;;12.88;;
37409;SDS011;23275;48.914;12.566;2023-01-26T01:28:41;21.92;;;12.27;;
37409;SDS011;23275;48.914;12.566;2023-01-26T01:31:09;25.98;;;11.57;;
37409;SDS011;23275;48.914;12.566;2023-01-26T01:33:39;21.13;;;11.88;;
37409;SDS011;23275;48.914;12.566;2023-01-26T01:36:06;21.55;;;11.77;;
37409;SDS011;23275;48.914;12.566;2023-01-26T01:38:34;20.58;;;11.35;;
37409;SDS011;23275;48.914;12.566;2023-01-26T01:41:00;25.40;;;13.07;;
37409;SDS011;23275;48.914;12.566;2023-01-26T01:43:26;26.42;;;13.02;;
37409;SDS011;23275;48.914;12.566;2023-01-26T01:45:52;24.80;;;12.82;;
37409;SDS011;23275;48.914;12.566;2023-01-26T01:50:48;23.05;;;12.68;;
37409;SDS011;23275;48.914;12.566;2023-01-26T01:53:19;25.42;;;14.25;;
37409;SDS011;23275;48.914;12.566;2023-01-26T01:55:50;25.10;;;13.75;;
37409;SDS011;23275;48.914;12.566;2023-01-26T01:58:19;25.83;;;12.85;;
37409;SDS011;23275;48.914;12.566;2023-01-26T02:00:45;25.67;;;12.05;;
37409;SDS011;23275;48.914;12.566;2023-01-26T02:03:11;23.23;;;11.80;;
37409;SDS011;23275;48.914;12.566;2023-01-26T02:05:56;26.15;;;11.98;;
37409;SDS011;23275;48.914;12.566;2023-01-26T02:11:26;23.90;;;12.90;;
37409;SDS011;23275;48.914;12.566;2023-01-26T02:13:58;26.30;;;13.20;;
37409;SDS011;23275;48.914;12.566;2023-01-26T02:16:27;29.27;;;14.45;;
37409;SDS011;23275;48.914;12.566;2023-01-26T02:18:52;23.63;;;13.27;;
37409;SDS011;23275;48.914;12.566;2023-01-26T02:21:18;26.25;;;13.75;;
37409;SDS011;23275;48.914;12.566;2023-01-26T02:23:52;23.55;;;13.60;;
37409;SDS011;23275;48.914;12.566;2023-01-26T02:26:26;27.60;;;14.50;;
37409;SDS011;23275;48.914;12.566;2023-01-26T02:28:53;29.98;;;13.88;;
37409;SDS011;23275;48.914;12.566;2023-01-26T02:31:20;27.20;;;14.20;;
37409;SDS011;23275;48.914;12.566;2023-01-26T02:33:47;21.70;;;11.95;;
37409;SDS011;23275;48.914;12.566;2023-01-26T02:36:23;25.85;;;12.80;;
37409;SDS011;23275;48.914;12.566;2023-01-26T02:38:54;24.85;;;12.52;;
37409;SDS011;23275;48.914;12.566;2023-01-26T02:41:38;20.23;;;11.88;;
37409;SDS011;23275;48.914;12.566;2023-01-26T02:44:22;23.02;;;12.45;;
37409;SDS011;23275;48.914;12.566;2023-01-26T02:46:49;21.65;;;12.40;;
37409;SDS011;23275;48.914;12.566;2023-01-26T02:49:14;21.45;;;12.60;;
37409;SDS011;23275;48.914;12.566;2023-01-26T02:51:59;26.85;;;12.95;;
37409;SDS011;23275;48.914;12.566;2023-01-26T02:54:24;25.25;;;12.85;;
37409;SDS011;23275;48.914;12.566;2023-01-26T02:57:08;25.08;;;13.18;;
37409;SDS011;23275;48.914;12.566;2023-01-26T02:59:34;25.67;;;13.90;;
37409;SDS011;23275;48.914;12.566;2023-01-26T03:01:59;24.15;;;13.00;;
37409;SDS011;23275;48.914;12.566;2023-01-26T03:04:25;25.15;;;13.40;;
37409;SDS011;23275;48.914;12.566;2023-01-26T03:06:51;28.20;;;14.27;;
37409;SDS011;23275;48.914;12.566;2023-01-26T03:09:16;29.35;;;13.30;;
37409;SDS011;23275;48.914;12.566;2023-01-26T03:11:42;23.27;;;12.55;;
37409;SDS011;23275;48.914;12.566;2023-01-26T03:14:08;23.95;;;12.32;;
37409;SDS011;23275;48.914;12.566;2023-01-26T03:16:35;23.35;;;11.88;;
37409;SDS011;23275;48.914;12.566;2023-01-26T03:19:00;23.70;;;12.90;;
37409;SDS011;23275;48.914;12.566;2023-01-26T03:21:29;27.75;;;12.98;;
37409;SDS011;23275;48.914;12.566;2023-01-26T03:24:14;26.10;;;13.80;;
37409;SDS011;23275;48.914;12.566;2023-01-26T03:26:58;27.02;;;14.77;;
37409;SDS011;23275;48.914;12.566;2023-01-26T03:29:43;28.00;;;15.35;;
37409;SDS011;23275;48.914;12.566;2023-01-26T03:32:09;28.30;;;15.05;;
37409;SDS011;23275;48.914;12.566;2023-01-26T03:34:35;26.45;;;13.93;;
37409;SDS011;23275;48.914;12.566;2023-01-26T03:37:01;26.65;;;14.23;;
37409;SDS011;23275;48.914;12.566;2023-01-26T03:39:27;24.20;;;13.00;;
37409;SDS011;23275;48.914;12.566;2023-01-26T03:42:11;25.42;;;12.95;;
37409;SDS011;23275;48.914;12.566;2023-01-26T03:44:55;27.00;;;12.95;;
37409;SDS011;23275;48.914;12.566;2023-01-26T03:47:39;29.35;;;14.05;;
37409;SDS011;23275;48.914;12.566;2023-01-26T03:50:23;30.20;;;13.50;;
37409;SDS011;23275;48.914;12.566;2023-01-26T03:53:11;28.35;;;14.38;;
37409;SDS011;23275;48.914;12.566;2023-01-26T03:56:00;30.92;;;14.90;;
37409;SDS011;23275;48.914;12.566;2023-01-26T03:58:44;31.02;;;15.00;;
37409;SDS011;23275;48.914;12.566;2023-01-26T04:01:10;28.70;;;14.13;;
37409;SDS011;23275;48.914;12.566;2023-01-26T04:03:44;25.98;;;13.00;;
37409;SDS011;23275;48.914;12.566;2023-01-26T04:06:32;27.75;;;14.07;;
37409;SDS011;23275;48.914;12.566;2023-01-26T04:09:17;26.55;;;13.48;;
37409;SDS011;23275;48.914;12.566;2023-01-26T04:11:42;27.67;;;14.15;;
37409;SDS011;23275;48.914;12.566;2023-01-26T04:14:09;27.02;;;13.82;;
37409;SDS011;23275;48.914;12.566;2023-01-26T04:16:54;28.02;;;12.63;;
37409;SDS011;23275;48.914;12.566;2023-01-26T04:19:39;26.35;;;13.48;;
37409;SDS011;23275;48.914;12.566;2023-01-26T04:22:23;28.27;;;13.82;;
37409;SDS011;23275;48.914;12.566;2023-01-26T04:24:49;31.27;;;16.45;;
37409;SDS011;23275;48.914;12.566;2023-01-26T04:27:14;29.08;;;14.65;;
37409;SDS011;23275;48.914;12.566;2023-01-26T04:29:40;31.77;;;14.82;;
37409;SDS011;23275;48.914;12.566;2023-01-26T04:32:05;28.35;;;14.68;;
37409;SDS011;23275;48.914;12.566;2023-01-26T04:34:31;28.65;;;14.93;;
37409;SDS011;23275;48.914;12.566;2023-01-26T04:36:56;30.42;;;14.90;;
37409;SDS011;23275;48.914;12.566;2023-01-26T04:39:22;27.00;;;13.38;;
37409;SDS011;23275;48.914;12.566;2023-01-26T04:41:47;27.70;;;13.77;;
37409;SDS011;23275;48.914;12.566;2023-01-26T04:44:13;28.95;;;13.85;;
37409;SDS011;23275;48.914;12.566;2023-01-26T04:46:38;26.70;;;13.98;;
37409;SDS011;23275;48.914;12.566;2023-01-26T04:49:04;25.73;;;12.77;;
37409;SDS011;23275;48.914;12.566;2023-01-26T04:51:30;26.45;;;13.82;;
37409;SDS011;23275;48.914;12.566;2023-01-26T04:53:55;27.30;;;14.05;;
37409;SDS011;23275;48.914;12.566;2023-01-26T04:58:51;29.85;;;16.35;;
37409;SDS011;23275;48.914;12.566;2023-01-26T05:01:18;30.40;;;15.45;;
37409;SDS011;23275;48.914;12.566;2023-01-26T05:03:44;32.92;;;16.70;;
37409;SDS011;23275;48.914;12.566;2023-01-26T05:06:11;35.33;;;18.52;;
37409;SDS011;23275;48.914;12.566;2023-01-26T05:08:36;33.25;;;15.98;;
37409;SDS011;23275;48.914;12.566;2023-01-26T05:11:02;35.67;;;17.55;;
37409;SDS011;23275;48.914;12.566;2023-01-26T05:13:29;31.85;;;15.68;;
37409;SDS011;23275;48.914;12.566;2023-01-26T05:15:54;28.02;;;14.32;;
37409;SDS011;23275;48.914;12.566;2023-01-26T05:18:20;28.98;;;15.73;;
37409;SDS011;23275;48.914;12.566;2023-01-26T05:20:46;30.20;;;15.90;;
37409;SDS011;23275;48.914;12.566;2023-01-26T05:23:11;28.35;;;15.18;;
37409;SDS011;23275;48.914;12.566;2023-01-26T05:25:37;28.02;;;15.10;;
37409;SDS011;23275;48.914;12.566;2023-01-26T05:28:03;29.50;;;15.00;;
37409;SDS011;23275;48.914;12.566;2023-01-26T05:30:29;29.85;;;15.35;;
37409;SDS011;23275;48.914;12.566;2023-01-26T05:32:59;28.23;;;14.50;;
37409;SDS011;23275;48.914;12.566;2023-01-26T05:35:29;27.33;;;14.18;;
37409;SDS011;23275;48.914;12.566;2023-01-26T05:37:55;31.42;;;16.15;;
37409;SDS011;23275;48.914;12.566;2023-01-26T05:40:21;31.50;;;15.07;;
37409;SDS011;23275;48.914;12.566;2023-01-26T05:42:46;30.08;;;15.40;;
37409;SDS011;23275;48.914;12.566;2023-01-26T05:45:12;26.77;;;14.77;;
37409;SDS011;23275;48.914;12.566;2023-01-26T05:47:38;29.00;;;13.95;;
37409;SDS011;23275;48.914;12.566;2023-01-26T05:50:04;25.65;;;13.02;;
37409;SDS011;23275;48.914;12.566;2023-01-26T05:52:30;27.88;;;13.15;;
37409;SDS011;23275;48.914;12.566;2023-01-26T05:54:56;26.73;;;13.38;;
37409;SDS011;23275;48.914;12.566;2023-01-26T05:57:21;28.75;;;13.40;;
37409;SDS011;23275;48.914;12.566;2023-01-26T05:59:47;23.52;;;13.07;;
37409;SDS011;23275;48.914;12.566;2023-01-26T06:02:13;27.02;;;12.55;;
37409;SDS011;23275;48.914;12.566;2023-01-26T06:04:39;25.27;;;13.35;;
37409;SDS011;23275;48.914;12.566;2023-01-26T06:07:04;24.05;;;12.48;;
37409;SDS011;23275;48.914;12.566;2023-01-26T06:09:30;24.73;;;13.00;;
37409;SDS011;23275;48.914;12.566;2023-01-26T06:11:56;26.23;;;12.85;;
37409;SDS011;23275;48.914;12.566;2023-01-26T06:14:21;28.48;;;13.77;;
37409;SDS011;23275;48.914;12.566;2023-01-26T06:16:47;27.88;;;14.23;;
37409;SDS011;23275;48.914;12.566;2023-01-26T06:19:13;27.80;;;13.32;;
37409;SDS011;23275;48.914;12.566;2023-01-26T06:21:38;25.55;;;13.85;;
37409;SDS011;23275;48.914;12.566;2023-01-26T06:24:04;32.08;;;14.38;;
37409;SDS011;23275;48.914;12.566;2023-01-26T06:26:30;31.38;;;13.60;;
37409;SDS011;23275;48.914;12.566;2023-01-26T06:28:56;30.52;;;14.25;;
37409;SDS011;23275;48.914;12.566;2023-01-26T06:31:21;30.00;;;14.18;;
37409;SDS011;23275;48.914;12.566;2023-01-26T06:33:48;27.67;;;13.68;;
37409;SDS011;23275;48.914;12.566;2023-01-26T06:36:14;27.65;;;14.07;;
37409;SDS011;23275;48.914;12.566;2023-01-26T06:38:47;26.58;;;13.10;;
37409;SDS011;23275;48.914;12.566;2023-01-26T06:41:16;26.48;;;12.88;;
37409;SDS011;23275;48.914;12.566;2023-01-26T06:43:45;26.35;;;13.30;;
37409;SDS011;23275;48.914;12.566;2023-01-26T06:46:12;25.17;;;12.75;;
37409;SDS011;23275;48.914;12.566;2023-01-26T06:48:38;26.17;;;12.95;;
37409;SDS011;23275;48.914;12.566;2023-01-26T06:53:42;31.10;;;14.60;;
37409;SDS011;23275;48.914;12.566;2023-01-26T06:56:12;28.38;;;13.98;;
37409;SDS011;23275;48.914;12.566;2023-01-26T06:58:37;29.55;;;13.48;;
37409;SDS011;23275;48.914;12.566;2023-01-26T07:01:03;29.92;;;13.98;;
37409;SDS011;23275;48.914;12.566;2023-01-26T07:03:29;26.67;;;12.90;;
37409;SDS011;23275;48.914;12.566;2023-01-26T07:05:54;23.88;;;13.18;;
37409;SDS011;23275;48.914;12.566;2023-01-26T07:08:20;27.73;;;13.55;;
37409;SDS011;23275;48.914;12.566;2023-01-26T07:10:45;27.80;;;13.40;;
37409;SDS011;23275;48.914;12.566;2023-01-26T07:13:11;26.65;;;13.05;;
37409;SDS011;23275;48.914;12.566;2023-01-26T07:15:37;29.27;;;14.10;;
37409;SDS011;23275;48.914;12.566;2023-01-26T07:18:02;27.13;;;14.20;;
37409;SDS011;23275;48.914;12.566;2023-01-26T07:20:28;24.65;;;12.65;;
37409;SDS011;23275;48.914;12.566;2023-01-26T07:22:53;27.52;;;13.18;;
37409;SDS011;23275;48.914;12.566;2023-01-26T07:25:19;29.02;;;12.48;;
37409;SDS011;23275;48.914;12.566;2023-01-26T07:27:45;28.15;;;13.13;;
37409;SDS011;23275;48.914;12.566;2023-01-26T07:30:11;26.98;;;13.23;;
37409;SDS011;23275;48.914;12.566;2023-01-26T07:32:40;29.25;;;13.25;;
37409;SDS011;23275;48.914;12.566;2023-01-26T07:35:06;28.05;;;13.95;;
37409;SDS011;23275;48.914;12.566;2023-01-26T07:37:32;31.17;;;13.95;;
37409;SDS011;23275;48.914;12.566;2023-01-26T07:39:57;30.42;;;13.98;;
37409;SDS011;23275;48.914;12.566;2023-01-26T07:42:23;28.70;;;14.10;;
37409;SDS011;23275;48.914;12.566;2023-01-26T07:44:48;28.48;;;13.45;;
37409;SDS011;23275;48.914;12.566;2023-01-26T07:47:14;26.92;;;13.20;;
37409;SDS011;23275;48.914;12.566;2023-01-26T07:49:40;27.95;;;13.35;;
37409;SDS011;23275;48.914;12.566;2023-01-26T07:52:05;31.17;;;13.43;;
37409;SDS011;23275;48.914;12.566;2023-01-26T07:54:32;30.38;;;13.48;;
37409;SDS011;23275;48.914;12.566;2023-01-26T07:56:58;29.02;;;13.75;;
37409;SDS011;23275;48.914;12.566;2023-01-26T07:59:23;37.78;;;14.43;;
37409;SDS011;23275;48.914;12.566;2023-01-26T08:01:49;33.72;;;14.45;;
37409;SDS011;23275;48.914;12.566;2023-01-26T08:04:15;32.92;;;15.13;;
37409;SDS011;23275;48.914;12.566;2023-01-26T08:06:41;29.08;;;13.77;;
37409;SDS011;23275;48.914;12.566;2023-01-26T08:09:07;34.03;;;14.73;;
37409;SDS011;23275;48.914;12.566;2023-01-26T08:11:33;30.85;;;14.15;;
37409;SDS011;23275;48.914;12.566;2023-01-26T08:13:59;33.97;;;14.63;;
37409;SDS011;23275;48.914;12.566;2023-01-26T08:16:24;37.75;;;15.93;;
37409;SDS011;23275;48.914;12.566;2023-01-26T08:18:50;34.25;;;14.85;;
37409;SDS011;23275;48.914;12.566;2023-01-26T08:21:16;28.33;;;13.27;;
37409;SDS011;23275;48.914;12.566;2023-01-26T08:23:46;29.83;;;14.18;;
37409;SDS011;23275;48.914;12.566;2023-01-26T08:28:39;31.98;;;13.88;;
37409;SDS011;23275;48.914;12.566;2023-01-26T08:31:06;32.78;;;14.70;;
37409;SDS011;23275;48.914;12.566;2023-01-26T08:33:38;32.70;;;13.68;;
37409;SDS011;23275;48.914;12.566;2023-01-26T08:36:07;29.75;;;13.20;;
37409;SDS011;23275;48.914;12.566;2023-01-26T08:38:34;29.17;;;14.38;;
37409;SDS011;23275;48.914;12.566;2023-01-26T08:41:00;31.50;;;13.52;;
37409;SDS011;23275;48.914;12.566;2023-01-26T08:43:26;30.67;;;12.85;;
37409;SDS011;23275;48.914;12.566;2023-01-26T08:45:52;31.13;;;12.75;;
37409;SDS011;23275;48.914;12.566;2023-01-26T08:48:17;31.13;;;14.07;;
37409;SDS011;23275;48.914;12.566;2023-01-26T08:50:43;24.63;;;11.90;;
37409;SDS011;23275;48.914;12.566;2023-01-26T08:53:09;31.23;;;13.85;;
37409;SDS011;23275;48.914;12.566;2023-01-26T08:55:35;31.05;;;12.80;;
37409;SDS011;23275;48.914;12.566;2023-01-26T08:58:01;28.40;;;12.75;;
37409;SDS011;23275;48.914;12.566;2023-01-26T09:00:26;29.60;;;12.43;;
37409;SDS011;23275;48.914;12.566;2023-01-26T09:03:02;28.15;;;13.50;;
37409;SDS011;23275;48.914;12.566;2023-01-26T09:05:33;33.95;;;13.55;;
37409;SDS011;23275;48.914;12.566;2023-01-26T09:08:00;28.25;;;12.65;;
37409;SDS011;23275;48.914;12.566;2023-01-26T09:10:26;29.23;;;13.10;;
37409;SDS011;23275;48.914;12.566;2023-01-26T09:12:52;31.88;;;12.57;;
37409;SDS011;23275;48.914;12.566;2023-01-26T09:15:17;27.20;;;12.40;;
37409;SDS011;23275;48.914;12.566;2023-01-26T09:17:43;25.90;;;11.98;;
37409;SDS011;23275;48.914;12.566;2023-01-26T09:20:12;27.00;;;11.18;;
37409;SDS011;23275;48.914;12.566;2023-01-26T09:22:37;29.45;;;12.00;;
37409;SDS011;23275;48.914;12.566;2023-01-26T09:25:03;27.08;;;11.23;;
37409;SDS011;23275;48.914;12.566;2023-01-26T09:27:29;26.13;;;11.88;;
37409;SDS011;23275;48.914;12.566;2023-01-26T09:29:54;28.52;;;11.63;;
37409;SDS011;23275;48.914;12.566;2023-01-26T09:32:20;25.27;;;11.80;;
37409;SDS011;23275;48.914;12.566;2023-01-26T09:34:46;31.17;;;13.18;;
37409;SDS011;23275;48.914;12.566;2023-01-26T09:37:12;29.73;;;12.32;;
37409;SDS011;23275;48.914;12.566;2023-01-26T09:39:38;29.50;;;11.68;;
37409;SDS011;23275;48.914;12.566;2023-01-26T09:42:21;28.27;;;12.13;;
37409;SDS011;23275;48.914;12.566;2023-01-26T09:45:11;26.67;;;11.88;;
37409;SDS011;23275;48.914;12.566;2023-01-26T09:50:53;28.58;;;12.60;;
37409;SDS011;23275;48.914;12.566;2023-01-26T09:53:27;27.27;;;10.80;;
37409;SDS011;23275;48.914;12.566;2023-01-26T09:56:02;27.52;;;10.73;;
37409;SDS011;23275;48.914;12.566;2023-01-26T09:58:36;25.98;;;10.85;;
37409;SDS011;23275;48.914;12.566;2023-01-26T10:01:03;24.98;;;10.75;;
37409;SDS011;23275;48.914;12.566;2023-01-26T10:06:26;28.83;;;10.65;;
37409;SDS011;23275;48.914;12.566;2023-01-26T10:08:55;26.13;;;10.20;;
37409;SDS011;23275;48.914;12.566;2023-01-26T10:11:29;25.55;;;11.02;;
37409;SDS011;23275;48.914;12.566;2023-01-26T10:14:04;26.42;;;10.95;;
37409;SDS011;23275;48.914;12.566;2023-01-26T10:16:37;25.90;;;10.60;;
37409;SDS011;23275;48.914;12.566;2023-01-26T10:19:04;28.08;;;11.13;;
37409;SDS011;23275;48.914;12.566;2023-01-26T10:21:44;29.83;;;11.57;;
37409;SDS011;23275;48.914;12.566;2023-01-26T10:24:13;26.80;;;11.85;;
37409;SDS011;23275;48.914;12.566;2023-01-26T10:26:44;24.65;;;10.55;;
37409;SDS011;23275;48.914;12.566;2023-01-26T10:29:12;30.42;;;10.98;;
37409;SDS011;23275;48.914;12.566;2023-01-26T10:31:39;26.25;;;10.90;;
37409;SDS011;23275;48.914;12.566;2023-01-26T10:34:15;25.65;;;10.43;;
37409;SDS011;23275;48.914;12.566;2023-01-26T10:36:45;25.40;;;10.88;;
37409;SDS011;23275;48.914;12.566;2023-01-26T10:39:12;33.90;;;15.50;;
37409;SDS011;23275;48.914;12.566;2023-01-26T10:41:39;28.08;;;12.68;;
37409;SDS011;23275;48.914;12.566;2023-01-26T10:44:23;36.67;;;15.55;;
37409;SDS011;23275;48.914;12.566;2023-01-26T10:47:03;29.83;;;12.27;;
37409;SDS011;23275;48.914;12.566;2023-01-26T10:49:35;24.52;;;9.70;;
37409;SDS011;23275;48.914;12.566;2023-01-26T10:52:10;22.45;;;10.35;;
37409;SDS011;23275;48.914;12.566;2023-01-26T10:54:41;24.67;;;10.23;;
37409;SDS011;23275;48.914;12.566;2023-01-26T10:57:15;26.25;;;11.27;;
37409;SDS011;23275;48.914;12.566;2023-01-26T10:59:55;24.90;;;11.05;;
37409;SDS011;23275;48.914;12.566;2023-01-26T11:02:24;28.80;;;10.55;;
37409;SDS011;23275;48.914;12.566;2023-01-26T11:07:33;32.22;;;14.95;;
37409;SDS011;23275;48.914;12.566;2023-01-26T11:10:27;32.33;;;15.20;;
37409;SDS011;23275;48.914;12.566;2023-01-26T11:15:36;29.10;;;11.15;;
37409;SDS011;23275;48.914;12.566;2023-01-26T11:18:10;24.48;;;10.95;;
37409;SDS011;23275;48.914;12.566;2023-01-26T11:20:55;25.48;;;11.10;;
37409;SDS011;23275;48.914;12.566;2023-01-26T11:42:39;31.23;;;10.88;;
37409;SDS011;23275;48.914;12.566;2023-01-26T11:45:27;25.42;;;11.75;;
37409;SDS011;23275;48.914;12.566;2023-01-26T11:48:22;25.88;;;10.75;;
37409;SDS011;23275;48.914;12.566;2023-01-26T11:50:58;29.23;;;12.60;;
37409;SDS011;23275;48.914;12.566;2023-01-26T11:59:13;30.45;;;13.35;;
37409;SDS011;23275;48.914;12.566;2023-01-26T12:04:42;30.30;;;12.15;;
37409;SDS011;23275;48.914;12.566;2023-01-26T12:09:46;31.48;;;12.32;;
37409;SDS011;23275;48.914;12.566;2023-01-26T12:12:35;27.52;;;12.65;;
37409;SDS011;23275;48.914;12.566;2023-01-26T12:20:41;34.67;;;17.02;;
37409;SDS011;23275;48.914;12.566;2023-01-26T12:23:34;26.38;;;12.27;;
37409;SDS011;23275;48.914;12.566;2023-01-26T12:26:14;26.90;;;11.80;;
37409;SDS011;23275;48.914;12.566;2023-01-26T12:28:51;25.10;;;11.02;;
37409;SDS011;23275;48.914;12.566;2023-01-26T12:32:04;21.90;;;10.65;;
37409;SDS011;23275;48.914;12.566;2023-01-26T12:34:28;24.38;;;12.30;;
37409;SDS011;23275;48.914;12.566;2023-01-26T12:37:19;24.35;;;11.15;;
37409;SDS011;23275;48.914;12.566;2023-01-26T12:45:43;22.10;;;10.15;;
37409;SDS011;23275;48.914;12.566;2023-01-26T12:53:34;21.83;;;9.75;;
37409;SDS011;23275;48.914;12.566;2023-01-26T12:56:18;31.17;;;13.73;;
37409;SDS011;23275;48.914;12.566;2023-01-26T12:58:48;24.92;;;10.88;;
37409;SDS011;23275;48.914;12.566;2023-01-26T13:01:17;25.98;;;11.35;;
37409;SDS011;23275;48.914;12.566;2023-01-26T13:03:58;24.30;;;9.52;;
37409;SDS011;23275;48.914;12.566;2023-01-26T13:06:28;26.52;;;12.38;;
37409;SDS011;23275;48.914;12.566;2023-01-26T13:11:42;21.15;;;10.05;;
37409;SDS011;23275;48.914;12.566;2023-01-26T13:14:28;18.88;;;9.65;;
37409;SDS011;23275;48.914;12.566;2023-01-26T13:24:47;16.90;;;8.23;;
37409;SDS011;23275;48.914;12.566;2023-01-26T13:27:26;21.80;;;9.90;;
37409;SDS011;23275;48.914;12.566;2023-01-26T13:35:11;18.70;;;10.65;;
37409;SDS011;23275;48.914;12.566;2023-01-26T13:40:36;17.30;;;8.50;;
37409;SDS011;23275;48.914;12.566;2023-01-26T13:45:33;17.77;;;9.07;;
37409;SDS011;23275;48.914;12.566;2023-01-26T13:48:09;15.85;;;8.10;;
37409;SDS011;23275;48.914;12.566;2023-01-26T13:50:39;14.40;;;7.32;;
37409;SDS011;23275;48.914;12.566;2023-01-26T13:55:59;14.15;;;6.45;;
37409;SDS011;23275;48.914;12.566;2023-01-26T13:58:26;14.27;;;7.18;;
37409;SDS011;23275;48.914;12.566;2023-01-26T14:00:58;16.65;;;7.90;;
37409;SDS011;23275;48.914;12.566;2023-01-26T14:03:31;16.17;;;7.30;;
37409;SDS011;23275;48.914;12.566;2023-01-26T14:05:58;15.00;;;6.38;;
37409;SDS011;23275;48.914;12.566;2023-01-26T14:08:26;13.93;;;6.70;;
37409;SDS011;23275;48.914;12.566;2023-01-26T14:10:53;12.98;;;6.65;;
37409;SDS011;23275;48.914;12.566;2023-01-26T14:13:32;20.23;;;8.73;;
37409;SDS011;23275;48.914;12.566;2023-01-26T14:16:00;23.67;;;11.45;;
37409;SDS011;23275;48.914;12.566;2023-01-26T14:18:28;22.33;;;10.02;;
37409;SDS011;23275;48.914;12.566;2023-01-26T14:21:00;17.15;;;10.43;;
37409;SDS011;23275;48.914;12.566;2023-01-26T14:23:30;14.65;;;7.55;;
37409;SDS011;23275;48.914;12.566;2023-01-26T14:26:07;17.60;;;8.90;;
37409;SDS011;23275;48.914;12.566;2023-01-26T14:28:42;17.90;;;9.18;;
37409;SDS011;23275;48.914;12.566;2023-01-26T14:31:17;13.10;;;6.72;;
37409;SDS011;23275;48.914;12.566;2023-01-26T14:33:46;13.65;;;6.38;;
37409;SDS011;23275;48.914;12.566;2023-01-26T14:36:13;13.18;;;6.65;;
37409;SDS011;23275;48.914;12.566;2023-01-26T14:38:41;14.68;;;7.00;;
37409;SDS011;23275;48.914;12.566;2023-01-26T14:41:12;13.27;;;5.82;;
37409;SDS011;23275;48.914;12.566;2023-01-26T14:43:41;10.98;;;5.47;;
37409;SDS011;23275;48.914;12.566;2023-01-26T14:46:08;13.15;;;5.55;;
37409;SDS011;23275;48.914;12.566;2023-01-26T14:48:45;13.95;;;6.13;;
37409;SDS011;23275;48.914;12.566;2023-01-26T14:51:14;13.27;;;6.03;;
37409;SDS011;23275;48.914;12.566;2023-01-26T14:53:51;13.05;;;5.60;;
37409;SDS011;23275;48.914;12.566;2023-01-26T14:56:30;12.27;;;5.43;;
37409;SDS011;23275;48.914;12.566;2023-01-26T14:58:59;11.85;;;5.32;;
37409;SDS011;23275;48.914;12.566;2023-01-26T15:01:25;13.98;;;6.18;;
37409;SDS011;23275;48.914;12.566;2023-01-26T15:04:00;14.63;;;5.65;;
37409;SDS011;23275;48.914;12.566;2023-01-26T15:06:30;12.90;;;5.88;;
37409;SDS011;23275;48.914;12.566;2023-01-26T15:09:03;11.90;;;5.57;;
37409;SDS011;23275;48.914;12.566;2023-01-26T15:11:51;13.77;;;5.32;;
37409;SDS011;23275;48.914;12.566;2023-01-26T15:14:37;10.35;;;5.10;;
37409;SDS011;23275;48.914;12.566;2023-01-26T15:22:47;11.88;;;5.13;;
37409;SDS011;23275;48.914;12.566;2023-01-26T15:27:48;11.00;;;5.35;;
37409;SDS011;23275;48.914;12.566;2023-01-26T15:30:16;12.25;;;5.43;;
37409;SDS011;23275;48.914;12.566;2023-01-26T15:32:45;12.18;;;5.30;;
37409;SDS011;23275;48.914;12.566;2023-01-26T15:35:18;12.40;;;5.82;;
37409;SDS011;23275;48.914;12.566;2023-01-26T15:37:58;12.55;;;4.68;;
37409;SDS011;23275;48.914;12.566;2023-01-26T15:40:26;10.95;;;5.00;;
37409;SDS011;23275;48.914;12.566;2023-01-26T15:43:03;11.68;;;5.28;;
37409;SDS011;23275;48.914;12.566;2023-01-26T15:45:35;13.30;;;5.20;;
37409;SDS011;23275;48.914;12.566;2023-01-26T15:48:03;11.57;;;5.63;;
37409;SDS011;23275;48.914;12.566;2023-01-26T15:50:28;12.85;;;4.95;;
37409;SDS011;23275;48.914;12.566;2023-01-26T15:52:54;12.38;;;5.72;;
37409;SDS011;23275;48.914;12.566;2023-01-26T15:55:20;12.95;;;5.45;;
37409;SDS011;23275;48.914;12.566;2023-01-26T15:57:50;13.45;;;5.70;;
37409;SDS011;23275;48.914;12.566;2023-01-26T16:00:15;13.40;;;6.50;;
37409;SDS011;23275;48.914;12.566;2023-01-26T16:02:41;12.93;;;5.57;;
37409;SDS011;23275;48.914;12.566;2023-01-26T16:05:10;14.93;;;5.90;;
37409;SDS011;23275;48.914;12.566;2023-01-26T16:07:41;12.05;;;5.88;;
37409;SDS011;23275;48.914;12.566;2023-01-26T16:10:07;12.85;;;5.65;;